sensor_id;sensor_type;location;lat;lon;timestamp;temperature;humidity
66128;DHT22;52925;52.436;-1.952;2023-12-14T05:44:16;7.50;99.90
66128;DHT22;52925;52.436;-1.952;2023-12-14T06:05:16;7.40;99.90
66128;DHT22;52925;52.436;-1.952;2023-12-14T06:06:38;7.50;99.90
66128;DHT22;52925;52.436;-1.952;2023-12-14T06:07:58;7.50;99.90
66128;DHT22;52925;52.436;-1.952;2023-12-14T06:09:19;7.40;99.90
66128;DHT22;52925;52.436;-1.952;2023-12-14T06:10:44;7.50;99.90
66128;DHT22;52925;52.436;-1.952;2023-12-14T06:12:05;7.50;99.90
66128;DHT22;52925;52.436;-1.952;2023-12-14T06:13:26;7.50;99.90
66128;DHT22;52925;52.436;-1.952;2023-12-14T06:14:47;7.40;99.90
66128;DHT22;52925;52.436;-1.952;2023-12-14T06:16:08;7.50;99.90
66128;DHT22;52925;52.436;-1.952;2023-12-14T06:17:32;7.50;99.90
66128;DHT22;52925;52.436;-1.952;2023-12-14T06:18:53;7.40;99.90
66128;DHT22;52925;52.436;-1.952;2023-12-14T06:20:16;7.40;99.90
66128;DHT22;52925;52.436;-1.952;2023-12-14T06:21:36;7.40;99.90
66128;DHT22;52925;52.436;-1.952;2023-12-14T06:22:57;7.40;99.90
66128;DHT22;52925;52.436;-1.952;2023-12-14T06:24:17;7.40;99.90
66128;DHT22;52925;52.436;-1.952;2023-12-14T06:25:40;7.40;99.90
66128;DHT22;52925;52.436;-1.952;2023-12-14T06:27:00;7.50;99.90
66128;DHT22;52925;52.436;-1.952;2023-12-14T06:28:22;7.40;99.90
66128;DHT22;52925;52.436;-1.952;2023-12-14T06:29:42;7.40;99.90
66128;DHT22;52925;52.436;-1.952;2023-12-14T06:31:03;7.40;99.90
66128;DHT22;52925;52.436;-1.952;2023-12-14T06:32:23;7.50;99.90
66128;DHT22;52925;52.436;-1.952;2023-12-14T06:33:45;7.50;99.90
66128;DHT22;52925;52.436;-1.952;2023-12-14T06:35:06;7.50;99.90
66128;DHT22;52925;52.436;-1.952;2023-12-14T06:36:28;7.50;99.90
66128;DHT22;52925;52.436;-1.952;2023-12-14T06:37:49;7.50;99.90
66128;DHT22;52925;52.436;-1.952;2023-12-14T06:39:10;7.50;99.90
66128;DHT22;52925;52.436;-1.952;2023-12-14T06:40:30;7.40;99.90
66128;DHT22;52925;52.436;-1.952;2023-12-14T06:41:52;7.50;99.90
66128;DHT22;52925;52.436;-1.952;2023-12-14T07:03:56;7.50;99.90
66128;DHT22;52925;52.436;-1.952;2023-12-14T07:05:17;7.50;99.90
66128;DHT22;52925;52.436;-1.952;2023-12-14T07:06:37;7.40;99.90
66128;DHT22;52925;52.436;-1.952;2023-12-14T07:07:58;7.50;99.90
66128;DHT22;52925;52.436;-1.952;2023-12-14T07:09:18;7.50;99.90
66128;DHT22;52925;52.436;-1.952;2023-12-14T07:10:41;7.50;99.90
66128;DHT22;52925;52.436;-1.952;2023-12-14T07:12:01;7.50;99.90
66128;DHT22;52925;52.436;-1.952;2023-12-14T07:13:22;7.40;99.90
66128;DHT22;52925;52.436;-1.952;2023-12-14T07:14:42;7.50;99.90
66128;DHT22;52925;52.436;-1.952;2023-12-14T07:16:06;7.50;99.90
66128;DHT22;52925;52.436;-1.952;2023-12-14T07:17:27;7.50;99.90
66128;DHT22;52925;52.436;-1.952;2023-12-14T16:52:53;8.30;99.90
66128;DHT22;52925;52.436;-1.952;2023-12-14T16:55:06;8.30;99.90
66128;DHT22;52925;52.436;-1.952;2023-12-14T16:56:30;8.30;99.90
66128;DHT22;52925;52.436;-1.952;2023-12-14T16:57:50;8.30;99.90
66128;DHT22;52925;52.436;-1.952;2023-12-14T16:59:14;8.30;99.90
66128;DHT22;52925;52.436;-1.952;2023-12-14T17:00:34;8.30;99.90
66128;DHT22;52925;52.436;-1.952;2023-12-14T17:01:56;8.30;99.90
66128;DHT22;52925;52.436;-1.952;2023-12-14T17:05:17;8.40;99.90
66128;DHT22;52925;52.436;-1.952;2023-12-14T17:06:36;8.30;99.90
66128;DHT22;52925;52.436;-1.952;2023-12-14T17:07:59;8.30;99.90
66128;DHT22;52925;52.436;-1.952;2023-12-14T17:09:19;8.30;99.90
66128;DHT22;52925;52.436;-1.952;2023-12-14T17:10:41;8.30;99.90
66128;DHT22;52925;52.436;-1.952;2023-12-14T17:12:01;8.30;99.90
66128;DHT22;52925;52.436;-1.952;2023-12-14T17:13:23;8.40;99.90
66128;DHT22;52925;52.436;-1.952;2023-12-14T17:14:43;8.40;99.90
66128;DHT22;52925;52.436;-1.952;2023-12-14T17:16:11;8.40;99.90
66128;DHT22;52925;52.436;-1.952;2023-12-14T17:17:31;8.30;99.90
66128;DHT22;52925;52.436;-1.952;2023-12-14T17:18:53;8.30;99.90
66128;DHT22;52925;52.436;-1.952;2023-12-14T17:20:14;8.30;99.90
66128;DHT22;52925;52.436;-1.952;2023-12-14T17:21:35;8.30;99.90
66128;DHT22;52925;52.436;-1.952;2023-12-14T17:22:54;8.40;99.90
66128;DHT22;52925;52.436;-1.952;2023-12-14T17:24:17;8.50;99.90
66128;DHT22;52925;52.436;-1.952;2023-12-14T17:25:37;8.60;99.90
66128;DHT22;52925;52.436;-1.952;2023-12-14T17:27:17;8.60;99.90
66128;DHT22;52925;52.436;-1.952;2023-12-14T17:28:49;8.70;99.90
66128;DHT22;52925;52.436;-1.952;2023-12-14T17:30:10;8.70;99.90
66128;DHT22;52925;52.436;-1.952;2023-12-14T17:31:34;8.80;99.90
66128;DHT22;52925;52.436;-1.952;2023-12-14T17:32:54;8.80;99.90
66128;DHT22;52925;52.436;-1.952;2023-12-14T17:34:24;8.80;99.90
66128;DHT22;52925;52.436;-1.952;2023-12-14T17:35:45;8.70;99.90
66128;DHT22;52925;52.436;-1.952;2023-12-14T17:37:10;8.70;99.90
66128;DHT22;52925;52.436;-1.952;2023-12-14T17:38:30;8.70;99.90
66128;DHT22;52925;52.436;-1.952;2023-12-14T17:39:53;8.60;99.90
66128;DHT22;52925;52.436;-1.952;2023-12-14T17:41:13;8.60;99.90
66128;DHT22;52925;52.436;-1.952;2023-12-14T17:44:49;8.50;99.90
66128;DHT22;52925;52.436;-1.952;2023-12-14T17:46:26;8.50;99.90
66128;DHT22;52925;52.436;-1.952;2023-12-14T17:47:46;8.40;99.90
66128;DHT22;52925;52.436;-1.952;2023-12-14T17:52:11;8.40;99.90
66128;DHT22;52925;52.436;-1.952;2023-12-14T17:53:33;8.40;99.90
66128;DHT22;52925;52.436;-1.952;2023-12-14T17:54:55;8.40;99.90
66128;DHT22;52925;52.436;-1.952;2023-12-14T17:56:16;8.40;99.90
66128;DHT22;52925;52.436;-1.952;2023-12-14T17:57:36;8.40;99.90
66128;DHT22;52925;52.436;-1.952;2023-12-14T17:58:57;8.40;99.90
66128;DHT22;52925;52.436;-1.952;2023-12-14T18:00:18;8.40;99.90
66128;DHT22;52925;52.436;-1.952;2023-12-14T18:01:55;8.40;99.90
66128;DHT22;52925;52.436;-1.952;2023-12-14T18:03:17;8.40;99.90
66128;DHT22;52925;52.436;-1.952;2023-12-14T18:04:39;8.50;99.90
66128;DHT22;52925;52.436;-1.952;2023-12-14T18:06:10;8.40;99.90
66128;DHT22;52925;52.436;-1.952;2023-12-14T18:07:30;8.40;99.90
66128;DHT22;52925;52.436;-1.952;2023-12-14T18:08:54;8.40;99.90
66128;DHT22;52925;52.436;-1.952;2023-12-14T18:10:24;8.40;99.90
66128;DHT22;52925;52.436;-1.952;2023-12-14T18:11:45;8.40;99.90
66128;DHT22;52925;52.436;-1.952;2023-12-14T18:13:05;8.40;99.90
66128;DHT22;52925;52.436;-1.952;2023-12-14T18:14:27;8.40;99.90
66128;DHT22;52925;52.436;-1.952;2023-12-14T18:15:51;8.40;99.90
66128;DHT22;52925;52.436;-1.952;2023-12-14T18:17:12;8.40;99.90
66128;DHT22;52925;52.436;-1.952;2023-12-14T18:18:33;8.40;99.90
66128;DHT22;52925;52.436;-1.952;2023-12-14T18:19:57;8.50;99.90
66128;DHT22;52925;52.436;-1.952;2023-12-14T18:21:20;8.40;99.90
66128;DHT22;52925;52.436;-1.952;2023-12-14T18:22:45;8.50;99.90
66128;DHT22;52925;52.436;-1.952;2023-12-14T18:24:07;8.50;99.90
66128;DHT22;52925;52.436;-1.952;2023-12-14T18:25:30;8.50;99.90
66128;DHT22;52925;52.436;-1.952;2023-12-14T18:26:50;8.40;99.90
66128;DHT22;52925;52.436;-1.952;2023-12-14T18:28:11;8.50;99.90
66128;DHT22;52925;52.436;-1.952;2023-12-14T18:29:31;8.50;99.90
66128;DHT22;52925;52.436;-1.952;2023-12-14T18:30:52;8.40;99.90
66128;DHT22;52925;52.436;-1.952;2023-12-14T18:32:12;8.50;99.90
66128;DHT22;52925;52.436;-1.952;2023-12-14T18:33:33;8.40;99.90
66128;DHT22;52925;52.436;-1.952;2023-12-14T18:34:53;8.40;99.90
66128;DHT22;52925;52.436;-1.952;2023-12-14T18:36:16;8.40;99.90
66128;DHT22;52925;52.436;-1.952;2023-12-14T18:37:36;8.50;99.90
66128;DHT22;52925;52.436;-1.952;2023-12-14T18:38:57;8.50;99.90
66128;DHT22;52925;52.436;-1.952;2023-12-14T18:40:17;8.50;99.90
66128;DHT22;52925;52.436;-1.952;2023-12-14T18:41:43;8.40;99.90
66128;DHT22;52925;52.436;-1.952;2023-12-14T18:43:02;8.50;99.90
66128;DHT22;52925;52.436;-1.952;2023-12-14T18:44:23;8.50;99.90
66128;DHT22;52925;52.436;-1.952;2023-12-14T18:45:43;8.50;99.90
66128;DHT22;52925;52.436;-1.952;2023-12-14T18:47:04;8.50;99.90
66128;DHT22;52925;52.436;-1.952;2023-12-14T18:48:24;8.50;99.90
66128;DHT22;52925;52.436;-1.952;2023-12-14T18:49:45;8.50;99.90
66128;DHT22;52925;52.436;-1.952;2023-12-14T18:51:08;8.50;99.90
66128;DHT22;52925;52.436;-1.952;2023-12-14T18:52:29;8.50;99.90
66128;DHT22;52925;52.436;-1.952;2023-12-14T18:53:49;8.50;99.90
66128;DHT22;52925;52.436;-1.952;2023-12-14T18:55:10;8.50;99.90
66128;DHT22;52925;52.436;-1.952;2023-12-14T18:56:31;8.50;99.90
66128;DHT22;52925;52.436;-1.952;2023-12-14T18:57:53;8.50;99.90
66128;DHT22;52925;52.436;-1.952;2023-12-14T18:59:13;8.50;99.90
66128;DHT22;52925;52.436;-1.952;2023-12-14T19:00:34;8.50;99.90
66128;DHT22;52925;52.436;-1.952;2023-12-14T19:01:54;8.50;99.90
66128;DHT22;52925;52.436;-1.952;2023-12-14T19:03:15;8.50;99.90
66128;DHT22;52925;52.436;-1.952;2023-12-14T19:04:35;8.50;99.90
66128;DHT22;52925;52.436;-1.952;2023-12-14T19:05:56;8.50;99.90
66128;DHT22;52925;52.436;-1.952;2023-12-14T19:07:16;8.50;99.90
66128;DHT22;52925;52.436;-1.952;2023-12-14T19:08:38;8.50;99.90
66128;DHT22;52925;52.436;-1.952;2023-12-14T19:09:58;8.50;99.90
66128;DHT22;52925;52.436;-1.952;2023-12-14T19:11:20;8.50;99.90
66128;DHT22;52925;52.436;-1.952;2023-12-14T19:12:40;8.50;99.90
66128;DHT22;52925;52.436;-1.952;2023-12-14T19:14:02;8.50;99.90
66128;DHT22;52925;52.436;-1.952;2023-12-14T19:15:22;8.50;99.90
66128;DHT22;52925;52.436;-1.952;2023-12-14T19:16:43;8.50;99.90
66128;DHT22;52925;52.436;-1.952;2023-12-14T19:18:03;8.50;99.90
66128;DHT22;52925;52.436;-1.952;2023-12-14T19:19:24;8.50;99.90
66128;DHT22;52925;52.436;-1.952;2023-12-14T19:20:44;8.50;99.90
66128;DHT22;52925;52.436;-1.952;2023-12-14T19:22:06;8.50;99.90
66128;DHT22;52925;52.436;-1.952;2023-12-14T19:23:26;8.50;99.90
66128;DHT22;52925;52.436;-1.952;2023-12-14T19:24:47;8.50;99.90
66128;DHT22;52925;52.436;-1.952;2023-12-14T19:26:15;8.50;99.90
66128;DHT22;52925;52.436;-1.952;2023-12-14T19:27:37;8.50;99.90
66128;DHT22;52925;52.436;-1.952;2023-12-14T19:28:57;8.50;99.90
66128;DHT22;52925;52.436;-1.952;2023-12-14T19:30:19;8.50;99.90
66128;DHT22;52925;52.436;-1.952;2023-12-14T19:31:39;8.50;99.90
66128;DHT22;52925;52.436;-1.952;2023-12-14T19:33:00;8.50;99.90
66128;DHT22;52925;52.436;-1.952;2023-12-14T19:34:20;8.50;99.90
66128;DHT22;52925;52.436;-1.952;2023-12-14T19:35:41;8.50;99.90
66128;DHT22;52925;52.436;-1.952;2023-12-14T19:37:01;8.50;99.90
66128;DHT22;52925;52.436;-1.952;2023-12-14T19:38:21;8.50;99.90
66128;DHT22;52925;52.436;-1.952;2023-12-14T19:39:41;8.50;99.90
66128;DHT22;52925;52.436;-1.952;2023-12-14T19:41:02;8.50;99.90
66128;DHT22;52925;52.436;-1.952;2023-12-14T19:42:22;8.40;99.90
66128;DHT22;52925;52.436;-1.952;2023-12-14T19:43:42;8.50;99.90
66128;DHT22;52925;52.436;-1.952;2023-12-14T19:45:04;8.50;99.90
66128;DHT22;52925;52.436;-1.952;2023-12-14T19:46:26;8.50;99.90
66128;DHT22;52925;52.436;-1.952;2023-12-14T19:47:46;8.50;99.90
66128;DHT22;52925;52.436;-1.952;2023-12-14T19:49:07;8.50;99.90
66128;DHT22;52925;52.436;-1.952;2023-12-14T19:50:27;8.50;99.90
66128;DHT22;52925;52.436;-1.952;2023-12-14T19:51:48;8.50;99.90
